sensor_id;sensor_type;location;lat;lon;timestamp;pressure;altitude;pressure_sealevel;temperature;humidity
31005;BME280;17676;52.254;4.490;2023-05-06T00:01:09;101474.81;;;13.84;100.00
31005;BME280;17676;52.254;4.490;2023-05-06T00:03:34;101474.59;;;13.92;100.00
31005;BME280;17676;52.254;4.490;2023-05-06T00:06:00;101472.25;;;13.96;100.00
31005;BME280;17676;52.254;4.490;2023-05-06T00:08:27;101475.38;;;13.99;100.00
31005;BME280;17676;52.254;4.490;2023-05-06T00:10:53;101473.09;;;14.03;100.00
31005;BME280;17676;52.254;4.490;2023-05-06T00:13:18;101472.41;;;14.07;100.00
31005;BME280;17676;52.254;4.490;2023-05-06T00:15:44;101459.22;;;14.11;100.00
31005;BME280;17676;52.254;4.490;2023-05-06T00:18:09;101464.63;;;14.17;100.00
31005;BME280;17676;52.254;4.490;2023-05-06T00:20:35;101470.47;;;14.27;100.00
31005;BME280;17676;52.254;4.490;2023-05-06T00:23:01;101463.78;;;14.23;100.00
31005;BME280;17676;52.254;4.490;2023-05-06T00:25:26;101460.00;;;14.31;100.00
31005;BME280;17676;52.254;4.490;2023-05-06T00:27:52;101459.13;;;14.37;100.00
31005;BME280;17676;52.254;4.490;2023-05-06T00:30:18;101473.31;;;14.45;100.00
31005;BME280;17676;52.254;4.490;2023-05-06T00:32:44;101461.16;;;14.48;100.00
31005;BME280;17676;52.254;4.490;2023-05-06T00:35:10;101458.00;;;14.44;100.00
31005;BME280;17676;52.254;4.490;2023-05-06T00:37:36;101449.94;;;14.31;100.00
31005;BME280;17676;52.254;4.490;2023-05-06T00:40:02;101463.72;;;14.36;100.00
31005;BME280;17676;52.254;4.490;2023-05-06T00:42:28;101450.97;;;14.30;100.00
31005;BME280;17676;52.254;4.490;2023-05-06T00:44:54;101458.69;;;14.40;100.00
31005;BME280;17676;52.254;4.490;2023-05-06T00:47:21;101434.47;;;14.25;100.00
31005;BME280;17676;52.254;4.490;2023-05-06T00:49:46;101438.00;;;14.26;100.00
31005;BME280;17676;52.254;4.490;2023-05-06T00:52:13;101443.66;;;14.24;100.00
31005;BME280;17676;52.254;4.490;2023-05-06T00:54:39;101439.06;;;14.18;100.00
31005;BME280;17676;52.254;4.490;2023-05-06T00:57:05;101440.75;;;14.19;100.00
31005;BME280;17676;52.254;4.490;2023-05-06T00:59:31;101431.53;;;14.14;100.00
31005;BME280;17676;52.254;4.490;2023-05-06T01:01:59;101425.09;;;14.08;100.00
31005;BME280;17676;52.254;4.490;2023-05-06T01:04:26;101426.59;;;14.04;100.00
31005;BME280;17676;52.254;4.490;2023-05-06T01:12:57;101423.31;;;13.89;100.00
31005;BME280;17676;52.254;4.490;2023-05-06T01:15:45;101412.44;;;13.83;100.00
31005;BME280;17676;52.254;4.490;2023-05-06T01:18:20;101425.38;;;13.87;100.00
31005;BME280;17676;52.254;4.490;2023-05-06T01:20:49;101425.22;;;13.82;100.00
31005;BME280;17676;52.254;4.490;2023-05-06T01:23:17;101408.50;;;13.72;100.00
31005;BME280;17676;52.254;4.490;2023-05-06T01:25:42;101416.88;;;13.71;100.00
31005;BME280;17676;52.254;4.490;2023-05-06T01:28:10;101431.31;;;13.71;100.00
31005;BME280;17676;52.254;4.490;2023-05-06T01:30:51;101422.56;;;13.63;100.00
31005;BME280;17676;52.254;4.490;2023-05-06T01:33:31;101435.50;;;13.67;100.00
31005;BME280;17676;52.254;4.490;2023-05-06T01:39:16;101436.38;;;13.61;100.00
31005;BME280;17676;52.254;4.490;2023-05-06T01:41:43;101422.19;;;13.46;100.00
31005;BME280;17676;52.254;4.490;2023-05-06T01:44:11;101433.47;;;13.43;100.00
31005;BME280;17676;52.254;4.490;2023-05-06T01:46:37;101437.25;;;13.42;100.00
31005;BME280;17676;52.254;4.490;2023-05-06T01:49:04;101432.66;;;13.36;100.00
31005;BME280;17676;52.254;4.490;2023-05-06T01:51:32;101427.66;;;13.33;100.00
31005;BME280;17676;52.254;4.490;2023-05-06T01:53:59;101455.25;;;13.37;100.00
31005;BME280;17676;52.254;4.490;2023-05-06T01:56:24;101444.59;;;13.29;100.00
31005;BME280;17676;52.254;4.490;2023-05-06T01:58:51;101448.56;;;13.26;100.00
31005;BME280;17676;52.254;4.490;2023-05-06T02:01:16;101440.22;;;13.21;100.00
31005;BME280;17676;52.254;4.490;2023-05-06T02:03:42;101441.47;;;13.19;100.00
31005;BME280;17676;52.254;4.490;2023-05-06T02:06:08;101446.28;;;13.17;100.00
31005;BME280;17676;52.254;4.490;2023-05-06T02:08:33;101443.34;;;13.18;100.00
31005;BME280;17676;52.254;4.490;2023-05-06T02:10:59;101457.78;;;13.25;100.00
31005;BME280;17676;52.254;4.490;2023-05-06T02:13:24;101451.69;;;13.23;100.00
31005;BME280;17676;52.254;4.490;2023-05-06T02:15:53;101452.56;;;13.11;100.00
31005;BME280;17676;52.254;4.490;2023-05-06T02:18:19;101457.34;;;13.15;100.00
31005;BME280;17676;52.254;4.490;2023-05-06T02:20:45;101461.53;;;13.11;100.00
31005;BME280;17676;52.254;4.490;2023-05-06T02:23:10;101461.97;;;13.08;100.00
31005;BME280;17676;52.254;4.490;2023-05-06T02:25:36;101456.94;;;13.05;100.00
31005;BME280;17676;52.254;4.490;2023-05-06T02:28:02;101464.91;;;13.07;100.00
31005;BME280;17676;52.254;4.490;2023-05-06T02:30:27;101446.06;;;13.05;100.00
31005;BME280;17676;52.254;4.490;2023-05-06T02:32:55;101451.91;;;13.02;100.00
31005;BME280;17676;52.254;4.490;2023-05-06T02:35:21;101454.44;;;12.97;100.00
31005;BME280;17676;52.254;4.490;2023-05-06T02:37:47;101454.44;;;12.97;100.00
31005;BME280;17676;52.254;4.490;2023-05-06T02:40:13;101473.25;;;13.05;100.00
31005;BME280;17676;52.254;4.490;2023-05-06T02:42:39;101465.09;;;13.05;100.00
31005;BME280;17676;52.254;4.490;2023-05-06T02:45:05;101466.34;;;13.03;100.00
31005;BME280;17676;52.254;4.490;2023-05-06T02:47:31;101450.22;;;12.88;100.00
31005;BME280;17676;52.254;4.490;2023-05-06T02:49:57;101470.06;;;12.95;100.00
31005;BME280;17676;52.254;4.490;2023-05-06T02:52:23;101461.09;;;12.88;100.00
31005;BME280;17676;52.254;4.490;2023-05-06T02:54:49;101459.84;;;12.84;100.00
31005;BME280;17676;52.254;4.490;2023-05-06T02:57:15;101456.47;;;12.82;100.00
31005;BME280;17676;52.254;4.490;2023-05-06T02:59:40;101457.75;;;12.80;100.00
31005;BME280;17676;52.254;4.490;2023-05-06T03:02:06;101456.06;;;12.79;100.00
31005;BME280;17676;52.254;4.490;2023-05-06T03:04:32;101459.41;;;12.74;100.00
31005;BME280;17676;52.254;4.490;2023-05-06T03:06:57;101454.22;;;12.79;100.00
31005;BME280;17676;52.254;4.490;2023-05-06T03:09:23;101453.56;;;12.77;100.00
31005;BME280;17676;52.254;4.490;2023-05-06T03:11:49;101462.34;;;12.79;100.00
31005;BME280;17676;52.254;4.490;2023-05-06T03:14:15;101455.22;;;12.78;100.00
31005;BME280;17676;52.254;4.490;2023-05-06T03:16:40;101450.63;;;12.72;100.00
31005;BME280;17676;52.254;4.490;2023-05-06T03:19:06;101460.84;;;12.70;100.00
31005;BME280;17676;52.254;4.490;2023-05-06T03:21:31;101459.59;;;12.60;100.00
31005;BME280;17676;52.254;4.490;2023-05-06T03:23:57;101443.69;;;12.44;100.00
31005;BME280;17676;52.254;4.490;2023-05-06T03:26:23;101451.81;;;12.44;100.00
31005;BME280;17676;52.254;4.490;2023-05-06T03:28:49;101453.94;;;12.42;100.00
31005;BME280;17676;52.254;4.490;2023-05-06T03:31:15;101434.66;;;12.30;100.00
31005;BME280;17676;52.254;4.490;2023-05-06T03:33:40;101449.31;;;12.42;100.00
31005;BME280;17676;52.254;4.490;2023-05-06T03:36:06;101450.97;;;12.37;100.00
31005;BME280;17676;52.254;4.490;2023-05-06T03:38:32;101459.16;;;12.43;100.00
31005;BME280;17676;52.254;4.490;2023-05-06T03:40:57;101457.25;;;12.37;100.00
31005;BME280;17676;52.254;4.490;2023-05-06T03:43:23;101441.31;;;12.21;100.00
31005;BME280;17676;52.254;4.490;2023-05-06T03:45:49;101450.91;;;12.17;100.00
31005;BME280;17676;52.254;4.490;2023-05-06T03:48:15;101450.50;;;12.14;100.00
31005;BME280;17676;52.254;4.490;2023-05-06T03:50:43;101470.78;;;12.24;100.00
31005;BME280;17676;52.254;4.490;2023-05-06T03:53:09;101463.03;;;12.21;100.00
31005;BME280;17676;52.254;4.490;2023-05-06T03:55:34;101456.16;;;12.19;100.00
31005;BME280;17676;52.254;4.490;2023-05-06T03:58:03;101472.22;;;12.20;100.00
31005;BME280;17676;52.254;4.490;2023-05-06T04:00:30;101475.53;;;12.16;100.00
31005;BME280;17676;52.254;4.490;2023-05-06T04:02:55;101463.22;;;12.13;100.00
31005;BME280;17676;52.254;4.490;2023-05-06T04:05:24;101461.34;;;12.07;100.00
31005;BME280;17676;52.254;4.490;2023-05-06T04:07:50;101462.78;;;12.03;100.00
31005;BME280;17676;52.254;4.490;2023-05-06T04:10:16;101463.41;;;12.12;100.00
31005;BME280;17676;52.254;4.490;2023-05-06T04:12:41;101474.72;;;12.15;100.00
31005;BME280;17676;52.254;4.490;2023-05-06T04:15:07;101471.75;;;12.10;100.00
31005;BME280;17676;52.254;4.490;2023-05-06T04:17:32;101473.47;;;12.11;100.00
31005;BME280;17676;52.254;4.490;2023-05-06T04:19:58;101472.22;;;12.14;100.00
31005;BME280;17676;52.254;4.490;2023-05-06T04:22:27;101465.50;;;12.03;100.00
31005;BME280;17676;52.254;4.490;2023-05-06T04:24:53;101465.94;;;12.13;100.00
31005;BME280;17676;52.254;4.490;2023-05-06T04:27:18;101470.97;;;12.16;100.00
31005;BME280;17676;52.254;4.490;2023-05-06T04:29:44;101477.47;;;12.28;100.00
31005;BME280;17676;52.254;4.490;2023-05-06T04:32:10;101461.00;;;12.30;100.00
31005;BME280;17676;52.254;4.490;2023-05-06T04:34:36;101466.03;;;12.39;100.00
31005;BME280;17676;52.254;4.490;2023-05-06T04:37:01;101481.94;;;12.55;100.00
31005;BME280;17676;52.254;4.490;2023-05-06T04:39:27;101488.66;;;12.59;100.00
31005;BME280;17676;52.254;4.490;2023-05-06T04:41:53;101479.25;;;12.62;100.00
31005;BME280;17676;52.254;4.490;2023-05-06T04:44:18;101485.69;;;12.61;100.00
31005;BME280;17676;52.254;4.490;2023-05-06T04:46:44;101479.03;;;12.63;100.00
31005;BME280;17676;52.254;4.490;2023-05-06T04:49:10;101463.56;;;12.70;100.00
31005;BME280;17676;52.254;4.490;2023-05-06T04:51:36;101474.88;;;12.80;100.00
31005;BME280;17676;52.254;4.490;2023-05-06T04:54:02;101475.94;;;12.92;100.00
31005;BME280;17676;52.254;4.490;2023-05-06T04:56:28;101484.09;;;12.92;100.00
31005;BME280;17676;52.254;4.490;2023-05-06T04:58:53;101486.63;;;13.00;100.00
31005;BME280;17676;52.254;4.490;2023-05-06T05:01:19;101480.34;;;13.00;100.00
31005;BME280;17676;52.254;4.490;2023-05-06T05:03:45;101476.75;;;12.93;100.00
31005;BME280;17676;52.254;4.490;2023-05-06T05:06:10;101478.22;;;12.95;100.00
31005;BME280;17676;52.254;4.490;2023-05-06T05:08:38;101484.97;;;13.06;100.00
31005;BME280;17676;52.254;4.490;2023-05-06T05:11:06;101473.88;;;13.01;100.00
31005;BME280;17676;52.254;4.490;2023-05-06T05:13:33;101494.38;;;13.10;100.00
31005;BME280;17676;52.254;4.490;2023-05-06T05:15:59;101490.16;;;13.07;100.00
31005;BME280;17676;52.254;4.490;2023-05-06T05:18:25;101489.56;;;13.18;100.00
31005;BME280;17676;52.254;4.490;2023-05-06T05:20:52;101488.72;;;13.31;100.00
31005;BME280;17676;52.254;4.490;2023-05-06T05:23:18;101492.50;;;13.30;100.00
31005;BME280;17676;52.254;4.490;2023-05-06T05:25:43;101491.22;;;13.45;100.00
31005;BME280;17676;52.254;4.490;2023-05-06T05:28:09;101482.84;;;13.47;100.00
31005;BME280;17676;52.254;4.490;2023-05-06T05:30:35;101510.03;;;13.47;100.00
31005;BME280;17676;52.254;4.490;2023-05-06T05:33:00;101508.59;;;13.38;100.00
31005;BME280;17676;52.254;4.490;2023-05-06T05:35:26;101507.97;;;13.29;100.00
31005;BME280;17676;52.254;4.490;2023-05-06T05:37:54;101493.97;;;13.32;100.00
31005;BME280;17676;52.254;4.490;2023-05-06T05:40:19;101504.19;;;13.43;100.00
31005;BME280;17676;52.254;4.490;2023-05-06T05:42:45;101490.78;;;13.35;100.00
31005;BME280;17676;52.254;4.490;2023-05-06T05:45:11;101493.94;;;13.45;100.00
31005;BME280;17676;52.254;4.490;2023-05-06T05:47:37;101503.78;;;13.27;100.00
31005;BME280;17676;52.254;4.490;2023-05-06T05:50:02;101505.00;;;13.50;100.00
31005;BME280;17676;52.254;4.490;2023-05-06T05:52:28;101496.38;;;13.79;100.00
31005;BME280;17676;52.254;4.490;2023-05-06T05:54:54;101500.69;;;14.06;100.00
31005;BME280;17676;52.254;4.490;2023-05-06T05:57:19;101505.69;;;14.22;100.00
31005;BME280;17676;52.254;4.490;2023-05-06T05:59:46;101502.56;;;14.56;100.00
31005;BME280;17676;52.254;4.490;2023-05-06T06:02:12;101489.13;;;14.68;100.00
31005;BME280;17676;52.254;4.490;2023-05-06T06:04:37;101493.66;;;14.74;100.00
31005;BME280;17676;52.254;4.490;2023-05-06T06:07:03;101510.34;;;14.91;100.00
31005;BME280;17676;52.254;4.490;2023-05-06T06:09:29;101509.00;;;15.00;100.00
31005;BME280;17676;52.254;4.490;2023-05-06T06:11:55;101510.13;;;15.17;100.00
31005;BME280;17676;52.254;4.490;2023-05-06T06:14:20;101510.50;;;15.27;100.00
31005;BME280;17676;52.254;4.490;2023-05-06T06:16:46;101510.34;;;15.22;100.00
31005;BME280;17676;52.254;4.490;2023-05-06T06:19:12;101505.16;;;15.14;100.00
31005;BME280;17676;52.254;4.490;2023-05-06T06:21:38;101509.19;;;15.36;100.00
31005;BME280;17676;52.254;4.490;2023-05-06T06:24:04;101507.25;;;15.61;100.00
31005;BME280;17676;52.254;4.490;2023-05-06T06:26:30;101514.88;;;15.77;100.00
31005;BME280;17676;52.254;4.490;2023-05-06T06:28:56;101518.38;;;16.20;100.00
31005;BME280;17676;52.254;4.490;2023-05-06T06:31:21;101519.06;;;16.51;100.00
31005;BME280;17676;52.254;4.490;2023-05-06T06:33:47;101533.75;;;16.68;100.00
31005;BME280;17676;52.254;4.490;2023-05-06T06:36:12;101524.34;;;16.64;100.00
31005;BME280;17676;52.254;4.490;2023-05-06T06:38:38;101523.88;;;16.67;100.00
31005;BME280;17676;52.254;4.490;2023-05-06T06:41:05;101538.47;;;16.91;100.00
31005;BME280;17676;52.254;4.490;2023-05-06T06:43:31;101531.06;;;17.21;100.00
31005;BME280;17676;52.254;4.490;2023-05-06T06:45:58;101525.84;;;17.31;100.00
31005;BME280;17676;52.254;4.490;2023-05-06T06:48:24;101523.75;;;16.92;100.00
31005;BME280;17676;52.254;4.490;2023-05-06T06:50:50;101529.78;;;16.82;100.00
31005;BME280;17676;52.254;4.490;2023-05-06T06:53:16;101538.47;;;16.61;100.00
31005;BME280;17676;52.254;4.490;2023-05-06T06:55:43;101526.34;;;16.57;100.00
31005;BME280;17676;52.254;4.490;2023-05-06T06:58:09;101530.97;;;16.86;100.00
31005;BME280;17676;52.254;4.490;2023-05-06T07:00:34;101533.53;;;17.11;100.00
31005;BME280;17676;52.254;4.490;2023-05-06T07:03:00;101546.81;;;18.29;100.00
31005;BME280;17676;52.254;4.490;2023-05-06T07:05:26;101544.09;;;19.41;100.00
31005;BME280;17676;52.254;4.490;2023-05-06T07:07:52;101524.78;;;19.19;100.00
31005;BME280;17676;52.254;4.490;2023-05-06T07:10:18;101537.19;;;19.39;100.00
31005;BME280;17676;52.254;4.490;2023-05-06T07:12:43;101566.28;;;20.87;100.00
31005;BME280;17676;52.254;4.490;2023-05-06T07:15:09;101553.91;;;21.42;100.00
31005;BME280;17676;52.254;4.490;2023-05-06T07:17:35;101561.41;;;21.47;100.00
31005;BME280;17676;52.254;4.490;2023-05-06T07:20:01;101567.69;;;21.42;100.00
31005;BME280;17676;52.254;4.490;2023-05-06T07:22:27;101564.16;;;22.71;100.00
31005;BME280;17676;52.254;4.490;2023-05-06T07:24:53;101560.81;;;21.45;100.00
31005;BME280;17676;52.254;4.490;2023-05-06T07:27:19;101562.56;;;21.24;100.00
31005;BME280;17676;52.254;4.490;2023-05-06T07:29:45;101556.88;;;20.61;100.00
31005;BME280;17676;52.254;4.490;2023-05-06T07:32:10;101552.66;;;21.91;100.00
31005;BME280;17676;52.254;4.490;2023-05-06T07:34:37;101560.75;;;23.76;100.00
31005;BME280;17676;52.254;4.490;2023-05-06T07:37:03;101570.44;;;23.59;100.00
31005;BME280;17676;52.254;4.490;2023-05-06T07:39:29;101564.34;;;24.07;100.00
31005;BME280;17676;52.254;4.490;2023-05-06T07:41:55;101565.47;;;23.51;100.00
31005;BME280;17676;52.254;4.490;2023-05-06T07:44:22;101572.47;;;24.67;100.00
31005;BME280;17676;52.254;4.490;2023-05-06T07:46:50;101563.00;;;24.78;100.00
31005;BME280;17676;52.254;4.490;2023-05-06T07:49:16;101565.72;;;24.88;100.00
31005;BME280;17676;52.254;4.490;2023-05-06T07:51:42;101549.53;;;24.61;100.00
31005;BME280;17676;52.254;4.490;2023-05-06T07:54:09;101555.84;;;25.54;100.00
31005;BME280;17676;52.254;4.490;2023-05-06T07:56:35;101562.22;;;25.88;100.00
31005;BME280;17676;52.254;4.490;2023-05-06T07:59:00;101562.75;;;25.23;100.00
31005;BME280;17676;52.254;4.490;2023-05-06T08:01:26;101557.59;;;25.45;100.00
31005;BME280;17676;52.254;4.490;2023-05-06T08:03:53;101575.72;;;25.66;100.00
31005;BME280;17676;52.254;4.490;2023-05-06T08:06:19;101559.47;;;25.83;100.00
31005;BME280;17676;52.254;4.490;2023-05-06T08:08:45;101554.44;;;24.74;100.00
31005;BME280;17676;52.254;4.490;2023-05-06T08:11:12;101556.34;;;24.79;100.00
31005;BME280;17676;52.254;4.490;2023-05-06T08:13:37;101567.09;;;23.72;100.00
31005;BME280;17676;52.254;4.490;2023-05-06T08:16:03;101564.31;;;24.12;100.00
31005;BME280;17676;52.254;4.490;2023-05-06T08:18:31;101575.34;;;24.32;100.00
31005;BME280;17676;52.254;4.490;2023-05-06T08:20:56;101573.03;;;24.54;100.00
31005;BME280;17676;52.254;4.490;2023-05-06T08:23:21;101575.63;;;23.15;100.00
31005;BME280;17676;52.254;4.490;2023-05-06T08:25:47;101572.28;;;23.18;100.00
31005;BME280;17676;52.254;4.490;2023-05-06T08:28:12;101567.66;;;23.43;100.00
31005;BME280;17676;52.254;4.490;2023-05-06T08:30:40;101569.25;;;24.35;100.00
31005;BME280;17676;52.254;4.490;2023-05-06T08:33:09;101575.41;;;23.77;100.00
31005;BME280;17676;52.254;4.490;2023-05-06T08:35:35;101565.47;;;24.79;100.00
31005;BME280;17676;52.254;4.490;2023-05-06T08:38:01;101572.13;;;25.27;100.00
31005;BME280;17676;52.254;4.490;2023-05-06T08:40:29;101569.34;;;25.32;100.00
31005;BME280;17676;52.254;4.490;2023-05-06T08:42:58;101572.63;;;24.90;100.00
31005;BME280;17676;52.254;4.490;2023-05-06T08:45:24;101571.28;;;24.83;100.00
31005;BME280;17676;52.254;4.490;2023-05-06T08:47:50;101580.59;;;25.02;100.00
31005;BME280;17676;52.254;4.490;2023-05-06T08:50:16;101566.41;;;25.13;100.00
31005;BME280;17676;52.254;4.490;2023-05-06T08:52:47;101573.91;;;25.08;100.00
31005;BME280;17676;52.254;4.490;2023-05-06T08:55:13;101573.84;;;25.18;100.00
31005;BME280;17676;52.254;4.490;2023-05-06T08:57:41;101573.97;;;25.75;100.00
31005;BME280;17676;52.254;4.490;2023-05-06T09:00:07;101570.03;;;25.09;100.00
31005;BME280;17676;52.254;4.490;2023-05-06T09:02:36;101566.94;;;25.15;100.00
31005;BME280;17676;52.254;4.490;2023-05-06T09:05:02;101569.25;;;24.25;100.00
31005;BME280;17676;52.254;4.490;2023-05-06T09:07:28;101569.88;;;23.57;100.00
31005;BME280;17676;52.254;4.490;2023-05-06T09:09:56;101563.81;;;23.75;100.00
31005;BME280;17676;52.254;4.490;2023-05-06T09:12:23;101572.50;;;22.91;100.00
31005;BME280;17676;52.254;4.490;2023-05-06T09:14:49;101563.78;;;23.65;100.00
31005;BME280;17676;52.254;4.490;2023-05-06T09:17:20;101567.47;;;24.69;100.00
31005;BME280;17676;52.254;4.490;2023-05-06T09:19:51;101564.34;;;24.02;100.00
31005;BME280;17676;52.254;4.490;2023-05-06T09:22:20;101568.84;;;24.76;100.00
31005;BME280;17676;52.254;4.490;2023-05-06T09:24:47;101571.69;;;25.53;100.00
31005;BME280;17676;52.254;4.490;2023-05-06T09:27:21;101568.38;;;25.51;100.00
31005;BME280;17676;52.254;4.490;2023-05-06T09:32:31;101562.50;;;26.15;100.00
31005;BME280;17676;52.254;4.490;2023-05-06T09:34:59;101560.78;;;25.23;100.00
31005;BME280;17676;52.254;4.490;2023-05-06T09:37:25;101554.19;;;26.15;100.00
31005;BME280;17676;52.254;4.490;2023-05-06T09:39:56;101558.28;;;23.95;100.00
31005;BME280;17676;52.254;4.490;2023-05-06T09:42:26;101553.22;;;23.01;100.00
31005;BME280;17676;52.254;4.490;2023-05-06T09:44:59;101549.78;;;22.13;100.00
31005;BME280;17676;52.254;4.490;2023-05-06T09:47:25;101550.81;;;23.65;100.00
31005;BME280;17676;52.254;4.490;2023-05-06T09:49:57;101545.84;;;24.76;100.00
31005;BME280;17676;52.254;4.490;2023-05-06T09:52:31;101543.22;;;25.43;100.00
31005;BME280;17676;52.254;4.490;2023-05-06T09:54:58;101550.66;;;25.04;100.00
31005;BME280;17676;52.254;4.490;2023-05-06T09:57:24;101540.84;;;25.88;100.00
31005;BME280;17676;52.254;4.490;2023-05-06T09:59:51;101535.75;;;24.36;100.00
31005;BME280;17676;52.254;4.490;2023-05-06T10:02:18;101540.91;;;24.58;100.00
31005;BME280;17676;52.254;4.490;2023-05-06T10:04:44;101537.00;;;25.56;100.00
31005;BME280;17676;52.254;4.490;2023-05-06T10:07:13;101534.19;;;24.00;100.00
31005;BME280;17676;52.254;4.490;2023-05-06T10:09:40;101528.38;;;22.30;100.00
31005;BME280;17676;52.254;4.490;2023-05-06T10:12:08;101531.03;;;22.71;100.00
31005;BME280;17676;52.254;4.490;2023-05-06T10:14:35;101543.31;;;23.76;100.00
31005;BME280;17676;52.254;4.490;2023-05-06T10:17:06;101527.03;;;22.42;100.00
31005;BME280;17676;52.254;4.490;2023-05-06T10:19:32;101528.03;;;22.88;100.00
31005;BME280;17676;52.254;4.490;2023-05-06T10:22:21;101516.88;;;22.48;100.00
31005;BME280;17676;52.254;4.490;2023-05-06T10:24:57;101508.72;;;22.88;100.00
31005;BME280;17676;52.254;4.490;2023-05-06T10:27:27;101530.06;;;23.68;100.00
31005;BME280;17676;52.254;4.490;2023-05-06T10:29:58;101509.63;;;23.38;100.00
31005;BME280;17676;52.254;4.490;2023-05-06T10:32:25;101521.16;;;22.95;100.00
31005;BME280;17676;52.254;4.490;2023-05-06T10:34:53;101522.00;;;22.24;100.00
31005;BME280;17676;52.254;4.490;2023-05-06T10:37:22;101508.91;;;22.05;100.00
31005;BME280;17676;52.254;4.490;2023-05-06T10:39:52;101520.06;;;22.96;100.00
31005;BME280;17676;52.254;4.490;2023-05-06T10:42:18;101511.22;;;22.89;100.00
31005;BME280;17676;52.254;4.490;2023-05-06T10:45:03;101521.53;;;23.39;100.00
31005;BME280;17676;52.254;4.490;2023-05-06T10:50:26;101510.38;;;22.22;100.00
31005;BME280;17676;52.254;4.490;2023-05-06T10:52:54;101503.66;;;21.98;100.00
31005;BME280;17676;52.254;4.490;2023-05-06T10:55:24;101506.13;;;22.46;100.00
31005;BME280;17676;52.254;4.490;2023-05-06T10:57:53;101501.78;;;22.70;100.00
31005;BME280;17676;52.254;4.490;2023-05-06T11:00:21;101514.03;;;23.24;100.00
31005;BME280;17676;52.254;4.490;2023-05-06T11:02:55;101494.00;;;24.23;100.00
31005;BME280;17676;52.254;4.490;2023-05-06T11:05:21;101503.81;;;24.64;100.00
31005;BME280;17676;52.254;4.490;2023-05-06T11:08:13;101496.94;;;25.00;100.00
31005;BME280;17676;52.254;4.490;2023-05-06T11:10:38;101499.63;;;25.10;100.00
31005;BME280;17676;52.254;4.490;2023-05-06T11:13:25;101509.91;;;24.56;100.00
31005;BME280;17676;52.254;4.490;2023-05-06T11:15:56;101489.69;;;23.57;100.00
31005;BME280;17676;52.254;4.490;2023-05-06T11:26:09;101498.44;;;21.65;100.00
31005;BME280;17676;52.254;4.490;2023-05-06T11:28:37;101502.03;;;22.07;100.00
31005;BME280;17676;52.254;4.490;2023-05-06T11:31:03;101508.63;;;22.53;100.00
31005;BME280;17676;52.254;4.490;2023-05-06T11:33:38;101497.94;;;22.86;100.00
31005;BME280;17676;52.254;4.490;2023-05-06T11:36:16;101487.47;;;23.03;100.00
31005;BME280;17676;52.254;4.490;2023-05-06T11:38:45;101492.22;;;23.28;100.00
31005;BME280;17676;52.254;4.490;2023-05-06T11:41:14;101484.72;;;23.48;100.00
31005;BME280;17676;52.254;4.490;2023-05-06T11:43:45;101497.69;;;23.88;100.00
31005;BME280;17676;52.254;4.490;2023-05-06T11:46:11;101493.28;;;23.92;100.00
31005;BME280;17676;52.254;4.490;2023-05-06T11:48:37;101486.78;;;24.32;100.00
31005;BME280;17676;52.254;4.490;2023-05-06T11:51:03;101476.88;;;24.16;100.00
31005;BME280;17676;52.254;4.490;2023-05-06T11:53:28;101490.63;;;24.36;100.00
31005;BME280;17676;52.254;4.490;2023-05-06T11:55:54;101488.94;;;22.34;100.00
31005;BME280;17676;52.254;4.490;2023-05-06T11:58:29;101496.88;;;21.74;100.00
31005;BME280;17676;52.254;4.490;2023-05-06T12:01:01;101471.69;;;22.02;100.00
31005;BME280;17676;52.254;4.490;2023-05-06T12:03:28;101474.59;;;22.37;100.00
31005;BME280;17676;52.254;4.490;2023-05-06T12:05:56;101468.13;;;22.93;100.00
31005;BME280;17676;52.254;4.490;2023-05-06T12:08:31;101473.63;;;23.84;100.00
31005;BME280;17676;52.254;4.490;2023-05-06T12:10:58;101496.50;;;24.78;100.00
31005;BME280;17676;52.254;4.490;2023-05-06T12:13:30;101486.47;;;24.92;100.00
31005;BME280;17676;52.254;4.490;2023-05-06T12:15:58;101486.84;;;24.80;100.00
31005;BME280;17676;52.254;4.490;2023-05-06T12:18:24;101503.34;;;24.37;100.00
31005;BME280;17676;52.254;4.490;2023-05-06T12:20:53;101482.50;;;23.71;100.00
31005;BME280;17676;52.254;4.490;2023-05-06T12:23:19;101493.03;;;23.59;100.00
31005;BME280;17676;52.254;4.490;2023-05-06T12:28:44;101494.03;;;22.62;100.00
31005;BME280;17676;52.254;4.490;2023-05-06T12:31:22;101470.47;;;22.45;100.00
31005;BME280;17676;52.254;4.490;2023-05-06T12:33:48;101479.50;;;22.20;100.00
31005;BME280;17676;52.254;4.490;2023-05-06T12:36:17;101473.03;;;22.56;100.00
31005;BME280;17676;52.254;4.490;2023-05-06T12:38:58;101474.22;;;23.00;100.00
31005;BME280;17676;52.254;4.490;2023-05-06T12:41:35;101487.50;;;23.64;100.00
31005;BME280;17676;52.254;4.490;2023-05-06T12:44:02;101486.41;;;23.55;100.00
31005;BME280;17676;52.254;4.490;2023-05-06T12:46:27;101469.66;;;22.44;100.00
31005;BME280;17676;52.254;4.490;2023-05-06T12:49:00;101497.47;;;23.29;100.00
31005;BME280;17676;52.254;4.490;2023-05-06T12:51:27;101474.00;;;23.27;100.00
31005;BME280;17676;52.254;4.490;2023-05-06T12:53:53;101484.50;;;21.77;100.00
31005;BME280;17676;52.254;4.490;2023-05-06T12:56:19;101486.41;;;21.71;100.00
31005;BME280;17676;52.254;4.490;2023-05-06T12:59:01;101478.53;;;21.53;100.00
31005;BME280;17676;52.254;4.490;2023-05-06T13:01:27;101481.53;;;21.88;100.00
31005;BME280;17676;52.254;4.490;2023-05-06T13:03:54;101487.88;;;22.40;100.00
31005;BME280;17676;52.254;4.490;2023-05-06T13:06:21;101473.00;;;22.51;100.00